createdAt,value
2023-05-23T00:00:15.664Z,3.10
2023-05-23T00:02:43.079Z,2.97
2023-05-23T00:05:09.868Z,4.88
2023-05-23T00:07:36.656Z,4.07
2023-05-23T00:10:04.469Z,4.00
2023-05-23T00:12:31.244Z,4.80
2023-05-23T00:14:57.975Z,5.10
2023-05-23T00:17:25.808Z,5.05
2023-05-23T00:19:52.956Z,3.03
2023-05-23T00:22:19.766Z,3.40
2023-05-23T00:24:46.550Z,3.38
2023-05-23T00:27:13.580Z,4.30
2023-05-23T00:29:40.328Z,3.72
2023-05-23T00:32:07.038Z,3.20
2023-05-23T00:34:34.605Z,4.05
2023-05-23T00:37:02.382Z,2.92
2023-05-23T00:39:29.487Z,3.20
2023-05-23T00:41:56.570Z,3.15
2023-05-23T00:44:23.286Z,2.65
2023-05-23T00:46:53.453Z,4.10
2023-05-23T00:49:20.711Z,3.08
2023-05-23T00:51:49.660Z,3.45
2023-05-23T00:54:19.180Z,3.13
2023-05-23T00:56:47.004Z,2.58
2023-05-23T00:59:13.978Z,3.00
2023-05-23T01:01:40.746Z,4.10
2023-05-23T01:04:07.735Z,3.95
2023-05-23T01:06:34.620Z,3.80
2023-05-23T01:09:03.004Z,4.30
2023-05-23T01:11:53.709Z,3.78
2023-05-23T01:14:33.038Z,3.30
2023-05-23T01:17:04.895Z,4.20
2023-05-23T01:19:36.209Z,4.05
2023-05-23T01:22:08.933Z,4.00
2023-05-23T01:25:27.932Z,2.80
2023-05-23T01:28:06.208Z,4.75
2023-05-23T01:30:35.886Z,4.55
2023-05-23T01:33:03.758Z,4.40
2023-05-23T01:35:31.614Z,4.63
2023-05-23T01:37:58.439Z,3.53
2023-05-23T01:40:26.142Z,4.63
2023-05-23T01:45:22.177Z,3.70
2023-05-23T01:47:50.500Z,4.00
2023-05-23T01:50:17.996Z,2.92
2023-05-23T01:52:46.213Z,2.75
2023-05-23T01:55:15.825Z,3.03
2023-05-23T01:57:42.844Z,3.63
2023-05-23T02:00:13.083Z,3.00
2023-05-23T02:02:39.841Z,4.57
2023-05-23T02:05:06.946Z,3.17
2023-05-23T02:07:33.715Z,2.83
2023-05-23T02:10:00.478Z,4.15
2023-05-23T02:12:27.237Z,4.15
2023-05-23T02:14:55.279Z,3.78
2023-05-23T02:17:22.369Z,3.08
2023-05-23T02:19:49.170Z,4.32
2023-05-23T02:22:15.901Z,3.53
2023-05-23T02:24:42.936Z,3.08
2023-05-23T02:27:09.676Z,2.97
2023-05-23T02:29:36.838Z,2.95
2023-05-23T02:32:03.794Z,3.38
2023-05-23T02:34:30.485Z,3.55
2023-05-23T02:36:57.237Z,3.10
2023-05-23T02:39:23.915Z,3.47
2023-05-23T02:41:50.719Z,4.78
2023-05-23T02:44:19.699Z,3.25
2023-05-23T02:46:46.626Z,3.13
2023-05-23T02:49:13.390Z,5.13
2023-05-23T02:51:40.211Z,4.50
2023-05-23T02:54:06.962Z,3.28
2023-05-23T02:56:33.684Z,4.47
2023-05-23T02:59:00.478Z,4.63
2023-05-23T03:01:27.504Z,4.72
2023-05-23T03:03:54.326Z,4.78
2023-05-23T03:06:22.637Z,4.72
2023-05-23T03:08:49.386Z,5.10
2023-05-23T03:11:16.498Z,4.60
2023-05-23T03:13:43.226Z,4.25
2023-05-23T03:16:10.094Z,4.45
2023-05-23T03:18:36.860Z,4.78
2023-05-23T03:21:03.777Z,5.00
2023-05-23T03:23:30.594Z,4.35
2023-05-23T03:25:57.305Z,5.78
2023-05-23T03:28:24.121Z,4.25
2023-05-23T03:30:50.787Z,4.88
2023-05-23T03:33:17.499Z,3.22
2023-05-23T03:35:44.784Z,4.57
2023-05-23T03:38:11.467Z,4.72
2023-05-23T03:40:38.105Z,3.97
2023-05-23T03:43:06.188Z,5.15
2023-05-23T03:45:33.305Z,3.45
2023-05-23T03:48:00.678Z,4.78
2023-05-23T03:50:27.729Z,6.13
2023-05-23T03:52:54.692Z,4.55
2023-05-23T03:55:22.594Z,5.10
2023-05-23T03:57:50.097Z,3.63
2023-05-23T04:00:17.026Z,4.45
2023-05-23T04:02:44.060Z,4.70
2023-05-23T04:05:10.933Z,4.63
2023-05-23T04:07:37.705Z,3.03
2023-05-23T04:10:04.929Z,4.10
2023-05-23T04:12:32.059Z,4.55
2023-05-23T04:14:58.828Z,3.40
2023-05-23T04:17:25.977Z,3.55
2023-05-23T04:19:54.329Z,4.85
2023-05-23T04:22:20.997Z,4.35
2023-05-23T04:24:47.714Z,4.50
2023-05-23T04:27:14.530Z,4.25
2023-05-23T04:29:41.332Z,4.88
2023-05-23T04:32:08.303Z,4.72
2023-05-23T04:34:35.136Z,3.20
2023-05-23T04:37:04.894Z,4.70
2023-05-23T04:39:31.589Z,3.55
2023-05-23T04:41:58.311Z,5.35
2023-05-23T04:44:26.872Z,4.07
2023-05-23T04:46:53.639Z,4.45
2023-05-23T04:49:22.914Z,4.90
2023-05-23T04:51:49.894Z,3.40
2023-05-23T04:54:16.694Z,4.63
2023-05-23T04:56:43.599Z,5.28
2023-05-23T04:59:11.542Z,3.67
2023-05-23T05:01:41.069Z,3.58
2023-05-23T05:04:08.059Z,3.78
2023-05-23T05:06:34.997Z,3.90
2023-05-23T05:09:01.746Z,3.22
2023-05-23T05:11:28.687Z,3.53
2023-05-23T05:13:55.518Z,5.35
2023-05-23T05:16:22.732Z,4.72
2023-05-23T05:18:49.566Z,5.10
2023-05-23T05:21:16.284Z,4.65
2023-05-23T05:23:43.744Z,4.18
2023-05-23T05:26:10.695Z,3.53
2023-05-23T05:28:38.301Z,5.07
2023-05-23T05:31:05.741Z,4.35
2023-05-23T05:33:36.278Z,4.65
2023-05-23T05:36:04.173Z,3.83
2023-05-23T05:38:30.976Z,3.35
2023-05-23T05:40:57.810Z,3.60
2023-05-23T05:43:25.930Z,3.35
2023-05-23T05:45:52.719Z,4.95
2023-05-23T05:48:19.557Z,3.90
2023-05-23T05:50:46.955Z,5.38
2023-05-23T05:53:14.264Z,5.82
2023-05-23T05:55:41.182Z,3.25
2023-05-23T05:58:07.917Z,3.30
2023-05-23T06:00:42.277Z,4.00
2023-05-23T06:03:09.495Z,5.18
2023-05-23T06:05:37.582Z,4.53
2023-05-23T06:08:05.014Z,4.45
2023-05-23T06:10:31.712Z,3.70
2023-05-23T06:12:59.050Z,3.50
2023-05-23T06:15:26.526Z,4.32
2023-05-23T06:17:53.379Z,4.03
2023-05-23T06:20:20.295Z,3.83
2023-05-23T06:22:47.253Z,5.38
2023-05-23T06:25:14.089Z,5.30
2023-05-23T06:27:41.475Z,3.53
2023-05-23T06:30:08.865Z,6.13
2023-05-23T06:32:35.845Z,3.92
2023-05-23T06:35:02.710Z,3.75
2023-05-23T06:37:29.418Z,4.80
2023-05-23T06:39:56.248Z,6.70
2023-05-23T06:42:22.924Z,8.73
2023-05-23T06:44:49.697Z,5.32
2023-05-23T06:47:16.388Z,3.95
2023-05-23T06:49:43.350Z,3.80
2023-05-23T06:52:10.049Z,6.80
2023-05-23T06:54:36.704Z,5.72
2023-05-23T06:57:03.521Z,3.90
2023-05-23T06:59:30.273Z,5.80
2023-05-23T07:01:56.982Z,5.53
2023-05-23T07:04:23.675Z,4.93
2023-05-23T07:06:50.460Z,6.78
2023-05-23T07:09:17.288Z,6.95
2023-05-23T07:11:44.047Z,7.60
2023-05-23T07:14:10.829Z,6.93
2023-05-23T07:16:37.708Z,6.13
2023-05-23T07:19:05.630Z,5.32
2023-05-23T07:21:32.715Z,6.10
2023-05-23T07:23:59.394Z,4.60
2023-05-23T07:26:27.998Z,5.00
2023-05-23T07:28:54.754Z,5.05
2023-05-23T07:31:21.545Z,4.10
2023-05-23T07:33:48.217Z,5.07
2023-05-23T07:36:14.943Z,5.32
2023-05-23T07:38:41.650Z,6.18
2023-05-23T07:41:12.134Z,8.32
2023-05-23T07:43:39.962Z,5.38
2023-05-23T07:46:07.054Z,5.38
2023-05-23T07:48:33.789Z,9.30
2023-05-23T07:51:01.350Z,5.43
2023-05-23T07:53:28.125Z,4.78
2023-05-23T07:55:54.824Z,5.30
2023-05-23T07:58:21.599Z,3.92
2023-05-23T08:00:51.138Z,5.43
2023-05-23T08:03:19.374Z,5.70
2023-05-23T08:05:47.300Z,6.20
2023-05-23T08:08:14.036Z,5.40
2023-05-23T08:10:41.067Z,6.50
2023-05-23T08:13:10.108Z,5.05
2023-05-23T08:15:36.932Z,5.30
2023-05-23T08:18:04.954Z,6.70
2023-05-23T08:20:32.346Z,6.03
2023-05-23T08:23:03.409Z,4.55
2023-05-23T08:25:30.942Z,5.53
2023-05-23T08:28:01.534Z,7.75
2023-05-23T08:30:29.164Z,3.90
2023-05-23T08:32:56.631Z,4.00
2023-05-23T08:35:23.750Z,4.90
2023-05-23T08:37:50.990Z,4.50
2023-05-23T08:40:22.972Z,5.53
2023-05-23T08:42:50.717Z,5.53
2023-05-23T08:45:18.191Z,5.10
2023-05-23T08:47:46.604Z,4.80
2023-05-23T08:50:19.460Z,4.93
2023-05-23T08:52:57.643Z,4.32
2023-05-23T08:55:27.319Z,4.63
2023-05-23T08:57:59.396Z,5.13
2023-05-23T09:00:27.401Z,7.57
2023-05-23T09:02:54.839Z,5.95
2023-05-23T09:05:22.137Z,7.68
2023-05-23T09:07:51.246Z,6.70
2023-05-23T09:10:21.982Z,4.93
2023-05-23T09:12:49.590Z,6.10
2023-05-23T09:15:17.343Z,7.68
2023-05-23T09:17:45.279Z,6.25
2023-05-23T09:20:14.715Z,5.30
2023-05-23T09:22:42.211Z,4.90
2023-05-23T09:25:09.384Z,6.55
2023-05-23T09:27:36.515Z,6.63
2023-05-23T09:30:07.595Z,6.63
2023-05-23T09:32:34.418Z,5.88
2023-05-23T09:35:24.265Z,5.38
2023-05-23T09:37:52.655Z,5.63
2023-05-23T09:40:19.487Z,6.30
2023-05-23T09:42:47.128Z,6.80
2023-05-23T09:45:15.119Z,5.82
2023-05-23T09:47:54.392Z,5.22
2023-05-23T09:50:21.494Z,5.22
2023-05-23T09:52:48.322Z,5.30
2023-05-23T09:55:15.316Z,11.93
2023-05-23T09:57:43.599Z,7.13
2023-05-23T10:00:11.599Z,6.95
2023-05-23T10:02:54.440Z,6.85
2023-05-23T10:05:33.312Z,6.82
2023-05-23T10:08:02.773Z,6.43
2023-05-23T10:10:33.905Z,7.68
2023-05-23T10:13:05.146Z,6.95
2023-05-23T10:15:37.123Z,5.50
2023-05-23T10:18:06.692Z,6.63
2023-05-23T10:20:33.778Z,5.60
2023-05-23T10:23:01.648Z,5.55
2023-05-23T10:25:29.072Z,7.47
2023-05-23T10:28:02.484Z,8.02
2023-05-23T10:30:30.999Z,5.93
2023-05-23T10:32:58.489Z,7.40
2023-05-23T10:35:47.099Z,6.10
2023-05-23T10:38:24.114Z,7.15
2023-05-23T10:41:01.256Z,7.25
2023-05-23T10:44:20.531Z,7.32
2023-05-23T10:46:54.254Z,6.60
2023-05-23T10:49:22.767Z,8.45
2023-05-23T10:51:51.659Z,7.72
2023-05-23T10:54:20.488Z,7.15
2023-05-23T10:56:47.279Z,9.40
2023-05-23T10:59:21.677Z,8.95
2023-05-23T11:01:51.430Z,8.50
2023-05-23T11:04:25.852Z,8.82
2023-05-23T11:06:55.151Z,7.88
2023-05-23T11:09:22.398Z,9.02
2023-05-23T11:11:54.991Z,8.40
2023-05-23T11:14:38.139Z,10.88
2023-05-23T11:17:20.395Z,10.95
2023-05-23T11:20:24.607Z,12.00
2023-05-23T11:23:02.980Z,11.90
2023-05-23T11:25:47.260Z,13.15
2023-05-23T11:28:14.311Z,10.75
2023-05-23T11:30:41.830Z,12.98
2023-05-23T11:33:17.141Z,11.73
2023-05-23T11:35:48.336Z,10.43
2023-05-23T11:38:16.717Z,11.18
2023-05-23T11:40:47.326Z,9.30
2023-05-23T11:43:15.844Z,10.02
2023-05-23T11:45:43.023Z,10.00
2023-05-23T11:48:12.066Z,8.52
2023-05-23T11:53:17.671Z,9.20
2023-05-23T11:55:53.334Z,5.97
2023-05-23T11:58:26.848Z,7.32
2023-05-23T12:01:02.603Z,7.93
2023-05-23T12:03:30.336Z,7.40
2023-05-23T12:05:58.235Z,6.03
2023-05-23T12:08:28.133Z,6.22
2023-05-23T12:10:58.148Z,6.05
2023-05-23T12:13:26.291Z,6.18
2023-05-23T12:15:57.161Z,5.45
2023-05-23T12:18:24.190Z,5.07
2023-05-23T12:20:53.740Z,6.60
2023-05-23T12:23:23.731Z,6.25
2023-05-23T12:25:54.460Z,6.03
2023-05-23T12:28:22.276Z,6.93
2023-05-23T12:30:49.642Z,7.47
2023-05-23T12:33:18.670Z,7.93
2023-05-23T12:38:16.612Z,7.13
2023-05-23T12:40:43.728Z,8.15
2023-05-23T12:43:13.621Z,8.27
2023-05-23T12:45:40.828Z,5.50
2023-05-23T12:48:07.786Z,5.70
2023-05-23T12:50:35.133Z,7.28
2023-05-23T12:53:01.876Z,6.80
2023-05-23T12:55:28.653Z,6.35
2023-05-23T12:57:55.349Z,7.65
2023-05-23T13:00:22.151Z,7.80
2023-05-23T13:02:50.398Z,7.63
2023-05-23T13:05:17.437Z,6.05
2023-05-23T13:07:44.471Z,5.93
2023-05-23T13:10:11.356Z,7.30
2023-05-23T13:12:38.577Z,7.28
2023-05-23T13:15:06.607Z,5.25
2023-05-23T13:17:33.396Z,5.63
2023-05-23T13:20:00.194Z,6.88
2023-05-23T13:22:27.035Z,5.65
2023-05-23T13:24:53.741Z,7.40
2023-05-23T13:27:20.448Z,7.20
2023-05-23T13:29:47.117Z,5.03
2023-05-23T13:32:13.943Z,7.65
2023-05-23T13:34:40.660Z,8.63
2023-05-23T13:37:07.560Z,9.15
2023-05-23T13:39:34.258Z,10.85
2023-05-23T13:42:01.163Z,5.63
2023-05-23T13:44:28.554Z,7.88
2023-05-23T13:46:55.782Z,7.50
2023-05-23T13:49:22.852Z,5.47
2023-05-23T13:51:50.293Z,5.10
2023-05-23T13:54:17.166Z,5.97
2023-05-23T13:56:44.321Z,5.22
2023-05-23T13:59:11.090Z,6.78
2023-05-23T14:01:37.845Z,6.05
2023-05-23T14:04:06.682Z,6.45
2023-05-23T14:06:33.873Z,5.40
2023-05-23T14:09:00.687Z,6.72
2023-05-23T14:11:28.533Z,6.88
2023-05-23T14:13:56.644Z,7.63
2023-05-23T14:16:23.636Z,6.82
2023-05-23T14:18:50.514Z,6.72
2023-05-23T14:21:17.442Z,6.47
2023-05-23T14:23:44.173Z,7.03
2023-05-23T14:26:11.178Z,6.50
2023-05-23T14:28:37.985Z,6.80
2023-05-23T14:31:04.987Z,6.40
2023-05-23T14:33:32.025Z,5.00
2023-05-23T14:35:59.295Z,6.68
2023-05-23T14:38:26.072Z,4.85
2023-05-23T14:40:53.762Z,5.85
2023-05-23T14:43:21.537Z,6.15
2023-05-23T14:45:48.347Z,6.18
2023-05-23T14:48:15.092Z,6.20
2023-05-23T14:50:42.639Z,5.53
2023-05-23T14:53:09.341Z,5.88
2023-05-23T14:55:36.155Z,8.65
2023-05-23T14:58:03.608Z,8.02
2023-05-23T15:00:30.390Z,7.15
2023-05-23T15:02:57.288Z,7.07
2023-05-23T15:05:25.189Z,5.53
2023-05-23T15:07:51.930Z,7.93
2023-05-23T15:10:18.695Z,7.95
2023-05-23T15:12:45.417Z,6.05
2023-05-23T15:15:12.142Z,5.78
2023-05-23T15:17:39.038Z,8.05
2023-05-23T15:20:07.601Z,6.95
2023-05-23T15:22:39.378Z,5.78
2023-05-23T15:25:43.308Z,5.68
2023-05-23T15:28:14.310Z,6.20
2023-05-23T15:30:41.347Z,4.63
2023-05-23T15:33:08.294Z,5.00
2023-05-23T15:35:35.077Z,10.35
2023-05-23T15:38:01.822Z,6.05
2023-05-23T15:40:28.534Z,3.92
2023-05-23T15:42:55.250Z,4.65
2023-05-23T15:45:22.308Z,4.18
2023-05-23T15:47:49.130Z,6.32
2023-05-23T15:50:16.045Z,5.47
2023-05-23T15:52:42.828Z,5.63
2023-05-23T15:55:09.849Z,8.13
2023-05-23T15:57:36.565Z,5.47
2023-05-23T16:00:03.960Z,4.05
2023-05-23T16:02:30.812Z,3.72
2023-05-23T16:04:58.051Z,3.67
2023-05-23T16:07:24.822Z,6.80
2023-05-23T16:09:51.567Z,3.80
2023-05-23T16:12:18.272Z,4.00
2023-05-23T16:14:45.013Z,4.93
2023-05-23T16:17:11.760Z,4.80
2023-05-23T16:19:38.501Z,5.65
2023-05-23T16:22:05.500Z,4.82
2023-05-23T16:24:32.278Z,4.88
2023-05-23T16:26:59.787Z,5.63
2023-05-23T16:29:26.620Z,5.63
2023-05-23T16:31:53.408Z,3.15
2023-05-23T16:34:20.146Z,4.13
2023-05-23T16:36:46.897Z,3.65
2023-05-23T16:39:13.670Z,3.88
2023-05-23T16:41:40.792Z,4.35
2023-05-23T16:44:07.530Z,4.07
2023-05-23T16:46:34.402Z,5.28
2023-05-23T16:49:01.369Z,4.38
2023-05-23T16:51:28.180Z,4.78
2023-05-23T16:53:54.947Z,4.47
2023-05-23T16:56:23.140Z,5.03
2023-05-23T16:58:49.983Z,5.93
2023-05-23T17:01:16.999Z,4.47
2023-05-23T17:03:44.033Z,4.80
2023-05-23T17:06:10.860Z,3.88
2023-05-23T17:08:37.611Z,9.30
2023-05-23T17:11:04.457Z,5.20
2023-05-23T17:13:32.007Z,4.07
2023-05-23T17:15:58.762Z,4.85
2023-05-23T17:18:25.685Z,5.63
2023-05-23T17:20:52.449Z,5.95
2023-05-23T17:23:19.267Z,3.72
2023-05-23T17:25:46.090Z,4.13
2023-05-23T17:28:12.898Z,5.25
2023-05-23T17:30:39.819Z,4.97
2023-05-23T17:33:06.575Z,6.47
2023-05-23T17:35:33.401Z,6.00
2023-05-23T17:38:02.400Z,4.22
2023-05-23T17:40:29.360Z,5.38
2023-05-23T17:42:56.226Z,3.40
2023-05-23T17:45:23.122Z,4.10
2023-05-23T17:47:49.925Z,5.00
2023-05-23T17:50:16.748Z,4.28
2023-05-23T17:52:44.834Z,5.95
2023-05-23T17:55:11.670Z,4.85
2023-05-23T17:57:38.760Z,6.72
2023-05-23T18:00:06.684Z,4.10
2023-05-23T18:02:33.923Z,5.10
2023-05-23T18:05:01.037Z,5.70
2023-05-23T18:07:27.777Z,7.25
2023-05-23T18:09:54.634Z,5.53
2023-05-23T18:12:21.376Z,4.78
2023-05-23T18:14:48.369Z,7.30
2023-05-23T18:17:15.258Z,9.63
2023-05-23T18:19:42.321Z,5.75
2023-05-23T18:22:09.609Z,5.75
2023-05-23T18:24:36.644Z,8.30
2023-05-23T18:27:04.558Z,4.93
2023-05-23T18:29:31.764Z,7.95
2023-05-23T18:31:58.498Z,4.70
2023-05-23T18:34:26.592Z,8.27
2023-05-23T18:36:55.670Z,11.48
2023-05-23T18:39:22.425Z,9.43
2023-05-23T18:41:49.118Z,10.23
2023-05-23T18:44:16.945Z,10.82
2023-05-23T18:46:46.047Z,10.07
2023-05-23T18:49:12.763Z,10.23
2023-05-23T18:51:39.451Z,8.48
2023-05-23T18:54:06.290Z,9.10
2023-05-23T18:56:33.050Z,10.20
2023-05-23T18:58:59.782Z,9.25
2023-05-23T19:01:26.592Z,9.38
2023-05-23T19:03:53.485Z,8.23
2023-05-23T19:06:20.314Z,7.35
2023-05-23T19:08:47.029Z,6.78
2023-05-23T19:11:14.740Z,10.30
2023-05-23T19:13:41.532Z,7.22
2023-05-23T19:16:08.551Z,7.18
2023-05-23T19:18:35.813Z,7.20
2023-05-23T19:21:03.164Z,8.57
2023-05-23T19:23:29.917Z,7.07
2023-05-23T19:25:56.754Z,6.28
2023-05-23T19:28:23.435Z,9.98
2023-05-23T19:30:50.290Z,12.40
2023-05-23T19:33:18.349Z,9.10
2023-05-23T19:35:47.556Z,9.20
2023-05-23T19:38:14.258Z,8.02
2023-05-23T19:40:41.253Z,8.10
2023-05-23T19:43:08.606Z,7.05
2023-05-23T19:45:36.943Z,8.73
2023-05-23T19:48:03.778Z,7.70
2023-05-23T19:50:30.490Z,9.63
2023-05-23T19:52:57.500Z,13.60
2023-05-23T19:55:24.451Z,35.63
2023-05-23T19:57:51.663Z,41.20
2023-05-23T20:00:18.628Z,43.95
2023-05-23T20:02:47.658Z,41.25
2023-05-23T20:07:41.245Z,30.38
2023-05-23T20:10:10.866Z,27.75
2023-05-23T20:12:37.985Z,26.30
2023-05-23T20:15:05.024Z,31.60
2023-05-23T20:17:32.171Z,18.63
2023-05-23T20:19:59.273Z,13.50
2023-05-23T20:22:25.969Z,12.85
2023-05-23T20:24:52.729Z,9.82
2023-05-23T20:27:19.468Z,11.45
2023-05-23T20:29:46.365Z,10.90
2023-05-23T20:32:13.747Z,11.30
2023-05-23T20:34:40.873Z,12.65
2023-05-23T20:37:07.646Z,11.32
2023-05-23T20:39:34.982Z,13.88
2023-05-23T20:42:02.121Z,13.80
2023-05-23T20:44:28.862Z,12.57
2023-05-23T20:46:57.213Z,13.85
2023-05-23T20:49:24.950Z,15.05
2023-05-23T20:51:51.833Z,13.23
2023-05-23T20:54:18.767Z,10.27
2023-05-23T20:56:47.331Z,11.75
2023-05-23T20:59:16.532Z,13.45
2023-05-23T21:01:43.552Z,20.25
2023-05-23T21:04:10.391Z,9.57
2023-05-23T21:06:37.429Z,57.28
2023-05-23T21:09:04.734Z,63.10
2023-05-23T21:11:31.434Z,40.95
2023-05-23T21:13:58.927Z,32.78
2023-05-23T21:16:25.692Z,26.75
2023-05-23T21:18:52.708Z,27.38
2023-05-23T21:21:19.673Z,19.23
2023-05-23T21:23:46.452Z,20.83
2023-05-23T21:26:13.176Z,20.00
2023-05-23T21:28:39.899Z,16.80
2023-05-23T21:31:07.931Z,17.25
2023-05-23T21:33:35.311Z,17.50
2023-05-23T21:36:02.069Z,14.30
2023-05-23T21:38:29.700Z,14.45
2023-05-23T21:40:56.608Z,15.50
2023-05-23T21:43:23.643Z,11.68
2023-05-23T21:45:50.497Z,11.57
2023-05-23T21:48:17.278Z,11.45
2023-05-23T21:50:44.396Z,11.70
2023-05-23T21:53:11.170Z,14.65
2023-05-23T21:55:37.903Z,18.02
2023-05-23T21:58:04.895Z,17.17
2023-05-23T22:00:31.852Z,19.52
2023-05-23T22:02:58.699Z,15.57
2023-05-23T22:05:25.723Z,13.73
2023-05-23T22:07:52.430Z,17.58
2023-05-23T22:10:20.473Z,15.77
2023-05-23T22:12:47.268Z,14.25
2023-05-23T22:15:14.117Z,11.32
2023-05-23T22:17:43.779Z,11.93
2023-05-23T22:20:13.262Z,14.25
2023-05-23T22:22:40.855Z,15.10
2023-05-23T22:25:08.237Z,15.02
2023-05-23T22:27:35.980Z,14.38
2023-05-23T22:30:03.298Z,14.07
2023-05-23T22:32:30.251Z,13.45
2023-05-23T22:34:57.049Z,15.38
2023-05-23T22:37:23.800Z,11.98
2023-05-23T22:39:50.753Z,14.20
2023-05-23T22:42:17.582Z,12.60
2023-05-23T22:44:44.332Z,11.63
2023-05-23T22:47:13.827Z,14.85
2023-05-23T22:49:42.624Z,12.60
2023-05-23T22:52:09.518Z,11.98
2023-05-23T22:54:36.412Z,11.38
2023-05-23T22:57:03.323Z,11.40
2023-05-23T22:59:31.064Z,13.02
2023-05-23T23:01:57.830Z,11.80
2023-05-23T23:04:25.477Z,11.05
2023-05-23T23:06:53.912Z,12.35
2023-05-23T23:09:20.723Z,11.82
2023-05-23T23:11:47.533Z,12.30
2023-05-23T23:14:15.953Z,10.38
2023-05-23T23:16:46.356Z,12.98
2023-05-23T23:19:13.164Z,10.07
2023-05-23T23:21:39.944Z,11.25
2023-05-23T23:24:07.974Z,11.93
2023-05-23T23:26:34.731Z,10.70
2023-05-23T23:29:03.236Z,10.00
2023-05-23T23:31:30.356Z,10.32
2023-05-23T23:33:57.133Z,9.27
2023-05-23T23:36:25.227Z,10.38
2023-05-23T23:38:51.946Z,9.75
2023-05-23T23:41:18.748Z,8.82
2023-05-23T23:43:45.508Z,9.40
2023-05-23T23:46:12.249Z,11.52
2023-05-23T23:48:38.959Z,8.35
2023-05-23T23:51:06.868Z,10.30
2023-05-23T23:53:34.235Z,9.85
2023-05-23T23:56:01.021Z,8.68
2023-05-23T23:58:27.750Z,9.02
